Time;durP1;ratioP1;P1;durP2;ratioP2;P2;SDS_P1;SDS_P2;PMS_P1;PMS_P2;Temp;Humidity;BMP_temperature;BMP_pressure;BME280_temperature;BME280_humidity;BME280_pressure;Samples;Min_cycle;Max_cycle;Signal;HPM_P1;HPM_P2
2023/06/16 00:02:13;;;;;;;5.85;4.75;;;;;;;25.29;50.95;100842.44;5074470;28;20048;-49
2023/06/16 00:04:43;;;;;;;7.25;4.35;;;;;;;25.29;51.33;100837.03;5074901;28;20048;-49
2023/06/16 00:07:10;;;;;;;6.38;4.70;;;;;;;25.30;50.85;100838.72;5074988;28;20388;-50
2023/06/16 00:09:38;;;;;;;6.53;4.78;;;;;;;25.29;50.93;100840.56;5074914;28;20044;-49
2023/06/16 00:12:06;;;;;;;6.88;4.75;;;;;;;25.30;51.00;100838.72;5074881;28;20493;-50
2023/06/16 00:14:33;;;;;;;6.10;4.70;;;;;;;25.30;51.07;100836.84;5074687;28;20055;-51
2023/06/16 00:17:03;;;;;;;5.78;4.75;;;;;;;25.29;51.09;100837.88;5075078;28;20465;-51
2023/06/16 00:19:31;;;;;;;5.70;4.03;;;;;;;25.31;51.17;100851.22;5075103;28;20048;-51
2023/06/16 00:21:59;;;;;;;7.15;4.45;;;;;;;25.31;51.00;100848.53;5074763;28;20438;-50
2023/06/16 00:24:27;;;;;;;5.45;4.95;;;;;;;25.31;50.96;100845.81;5074713;28;20492;-52
2023/06/16 00:26:55;;;;;;;6.70;4.55;;;;;;;25.30;51.04;100847.69;5074485;28;20053;-50
2023/06/16 00:29:22;;;;;;;5.78;5.07;;;;;;;25.29;50.85;100846.00;5074622;28;20487;-50
2023/06/16 00:31:50;;;;;;;5.88;4.72;;;;;;;25.30;51.08;100849.56;5074688;28;20051;-50
2023/06/16 00:34:17;;;;;;;9.10;4.95;;;;;;;25.30;51.12;100852.25;5074377;28;20044;-47
2023/06/16 00:36:45;;;;;;;5.30;4.47;;;;;;;25.29;51.23;100856.84;5073244;28;20048;-49
2023/06/16 00:39:13;;;;;;;5.13;4.50;;;;;;;25.30;51.52;100860.38;5074048;28;20437;-48
2023/06/16 00:41:40;;;;;;;7.30;5.05;;;;;;;25.31;51.30;100864.78;5072638;28;20511;-51
2023/06/16 00:44:07;;;;;;;6.80;5.13;;;;;;;25.31;51.20;100859.38;5074299;28;20044;-50
2023/06/16 00:46:36;;;;;;;9.05;4.75;;;;;;;25.30;51.27;100865.81;5074180;28;20049;-50
2023/06/16 00:49:04;;;;;;;4.60;4.03;;;;;;;25.30;51.29;100861.22;5072803;28;20056;-53
2023/06/16 00:51:32;;;;;;;5.38;4.38;;;;;;;25.30;51.34;100860.38;5074244;28;20051;-48
2023/06/16 00:54:01;;;;;;;4.68;4.18;;;;;;;25.30;51.29;100863.94;5074011;28;20044;-49
2023/06/16 00:56:29;;;;;;;6.55;4.80;;;;;;;25.29;51.41;100862.25;5073040;28;20397;-48
2023/06/16 00:58:58;;;;;;;5.55;4.57;;;;;;;25.30;51.42;100857.69;5073827;28;20059;-49
2023/06/16 01:01:28;;;;;;;5.25;4.03;;;;;;;25.30;51.37;100860.38;5074030;28;20044;-48
2023/06/16 01:03:55;;;;;;;6.05;4.60;;;;;;;25.30;51.32;100855.81;5072645;28;20052;-50
2023/06/16 01:06:47;;;;;;;5.07;4.53;;;;;;;25.29;51.44;100859.53;5056310;28;20048;-52
2023/06/16 01:09:37;;;;;;;6.20;4.68;;;;;;;25.29;51.59;100856.00;5073799;28;20492;-49
2023/06/16 01:12:30;;;;;;;7.70;5.13;;;;;;;25.30;51.47;100863.09;5073427;28;20051;-50
2023/06/16 01:15:07;;;;;;;5.32;4.05;;;;;;;25.29;51.56;100862.25;5073890;28;20048;-50
2023/06/16 01:17:43;;;;;;;7.32;4.68;;;;;;;25.31;51.51;100876.47;5073838;28;20059;-50
2023/06/16 01:20:39;;;;;;;6.40;4.70;;;;;;;25.30;51.70;100879.34;5074030;28;20387;-50
2023/06/16 01:23:26;;;;;;;4.97;4.25;;;;;;;25.30;51.71;100887.47;5073691;28;20044;-51
2023/06/16 01:25:57;;;;;;;7.00;5.10;;;;;;;25.30;51.70;100933.56;5073346;28;20059;-50
2023/06/16 01:28:27;;;;;;;5.50;4.55;;;;;;;25.31;51.68;100943.38;5073327;28;20377;-54
2023/06/16 01:30:54;;;;;;;6.13;4.50;;;;;;;25.31;51.85;100940.66;5073669;28;20057;-52
2023/06/16 01:33:24;;;;;;;5.90;4.10;;;;;;;25.30;51.59;100909.16;5073572;28;20040;-52
2023/06/16 01:35:55;;;;;;;7.68;4.97;;;;;;;25.30;51.51;100936.25;5073076;28;20067;-52
2023/06/16 01:38:23;;;;;;;5.57;4.38;;;;;;;25.30;51.71;100939.81;5072748;28;20384;-53
2023/06/16 01:40:52;;;;;;;6.43;4.70;;;;;;;25.30;51.45;100930.84;5072688;28;20059;-51
2023/06/16 01:43:20;;;;;;;8.90;4.75;;;;;;;25.30;51.48;100931.69;5073450;28;20061;-50
2023/06/16 01:45:50;;;;;;;5.25;4.18;;;;;;;25.29;51.88;100921.03;5072062;28;20044;-49
2023/06/16 01:48:21;;;;;;;5.57;4.50;;;;;;;25.30;51.87;100920.00;5072375;28;20048;-49
2023/06/16 01:50:49;;;;;;;5.07;4.53;;;;;;;25.31;51.68;100918.97;5073443;28;20067;-49
2023/06/16 01:53:17;;;;;;;5.15;4.25;;;;;;;25.30;51.86;100922.72;5071663;28;20504;-50
2023/06/16 01:55:51;;;;;;;6.13;4.40;;;;;;;25.30;51.80;100917.28;5071606;28;20063;-49
2023/06/16 01:58:24;;;;;;;5.30;4.55;;;;;;;25.31;51.84;100918.97;5071660;28;20056;-50
2023/06/16 02:00:58;;;;;;;5.43;4.43;;;;;;;25.30;51.90;100920.00;5071977;28;20055;-50
2023/06/16 02:03:50;;;;;;;6.07;4.28;;;;;;;25.31;51.84;100918.97;5072121;28;20384;-49
2023/06/16 02:06:28;;;;;;;7.28;4.85;;;;;;;25.30;52.08;100906.44;5071604;28;20052;-49
2023/06/16 02:08:59;;;;;;;6.68;5.10;;;;;;;25.31;51.88;100908.13;5073126;28;20048;-49
2023/06/16 02:11:26;;;;;;;5.65;4.88;;;;;;;25.30;51.86;100909.16;5072719;28;20048;-50
2023/06/16 02:13:54;;;;;;;5.25;4.75;;;;;;;25.31;51.94;100908.13;5072337;28;20048;-49
2023/06/16 02:16:21;;;;;;;7.30;5.35;;;;;;;25.31;51.77;100908.13;5072482;28;20059;-48
2023/06/16 02:18:49;;;;;;;7.28;5.72;;;;;;;25.30;52.09;100906.44;5072506;28;20056;-48
2023/06/16 02:21:16;;;;;;;7.45;5.13;;;;;;;25.29;52.17;100894.78;5071446;28;20048;-52
2023/06/16 02:23:44;;;;;;;6.35;5.00;;;;;;;25.30;52.08;100895.63;5072899;28;20541;-50
2023/06/16 02:26:11;;;;;;;6.13;5.53;;;;;;;25.29;52.17;100893.94;5076574;28;20040;-51
2023/06/16 02:28:39;;;;;;;5.22;4.72;;;;;;;25.30;52.15;100890.19;5076995;28;20048;-52
2023/06/16 02:31:06;;;;;;;8.45;5.50;;;;;;;25.31;52.26;100886.47;5075850;28;20056;-48
2023/06/16 02:33:34;;;;;;;5.07;4.57;;;;;;;25.31;52.45;100900.84;5077071;28;20044;-50
2023/06/16 02:36:02;;;;;;;5.78;5.07;;;;;;;25.31;52.65;100905.44;5076885;28;20043;-48
2023/06/16 02:38:30;;;;;;;6.72;5.15;;;;;;;25.31;52.93;100908.13;5076742;28;20048;-49
2023/06/16 02:40:57;;;;;;;7.28;5.60;;;;;;;25.30;52.69;100906.44;5076677;28;20361;-49
2023/06/16 02:43:24;;;;;;;8.52;5.97;;;;;;;25.31;52.73;100903.56;5076604;28;20053;-49
2023/06/16 02:45:53;;;;;;;7.00;5.60;;;;;;;25.29;52.91;100897.47;5076650;28;20047;-49
2023/06/16 02:48:20;;;;;;;7.88;5.05;;;;;;;25.30;52.95;100892.91;5076670;28;20499;-48
2023/06/16 02:50:52;;;;;;;6.47;5.30;;;;;;;25.29;52.97;100885.81;5075091;28;20057;-50
2023/06/16 02:53:19;;;;;;;6.97;5.85;;;;;;;25.28;53.02;100884.97;5076386;28;20278;-51
2023/06/16 02:55:47;;;;;;;8.07;5.68;;;;;;;25.29;52.91;100883.94;5074946;28;20051;-51
2023/06/16 02:58:18;;;;;;;9.77;6.43;;;;;;;25.29;53.02;100880.38;5074924;28;20052;-52
2023/06/16 03:00:45;;;;;;;7.65;5.68;;;;;;;25.28;52.97;100875.94;5074660;28;20068;-51
2023/06/16 03:03:17;;;;;;;6.65;5.90;;;;;;;25.27;53.09;100877.81;5074647;28;20060;-52
2023/06/16 03:05:53;;;;;;;6.53;5.50;;;;;;;25.28;53.02;100875.94;5075035;28;20055;-51
2023/06/16 03:08:22;;;;;;;6.80;6.10;;;;;;;25.26;53.05;100875.28;5074777;28;20388;-51
2023/06/16 03:10:51;;;;;;;6.57;5.68;;;;;;;25.26;53.04;100869.88;5074644;28;20052;-49
2023/06/16 03:13:24;;;;;;;7.72;6.05;;;;;;;25.26;53.00;100880.72;5074600;28;20048;-51
2023/06/16 03:15:52;;;;;;;7.88;5.80;;;;;;;25.26;53.04;100872.59;5075887;28;20037;-49
2023/06/16 03:18:20;;;;;;;7.03;5.75;;;;;;;25.26;53.03;100878.00;5075931;28;20040;-48
2023/06/16 03:20:47;;;;;;;8.23;5.05;;;;;;;25.26;52.72;100883.41;5075988;28;20052;-51
2023/06/16 03:23:20;;;;;;;6.07;5.47;;;;;;;25.28;52.92;100881.38;5074079;28;20408;-53
2023/06/16 03:25:48;;;;;;;6.95;5.43;;;;;;;25.28;53.07;100882.25;5074373;28;20052;-51
2023/06/16 03:28:19;;;;;;;8.27;5.20;;;;;;;25.27;53.15;100875.13;5074362;28;20053;-52
2023/06/16 03:30:47;;;;;;;8.50;6.15;;;;;;;25.28;52.98;100874.13;5074429;28;20049;-51
2023/06/16 03:33:22;;;;;;;8.32;6.05;;;;;;;25.29;53.01;100883.94;5074346;28;20059;-49
2023/06/16 03:35:50;;;;;;;6.78;5.50;;;;;;;25.28;53.17;100884.97;5073248;28;20048;-50
2023/06/16 03:38:32;;;;;;;6.43;5.20;;;;;;;25.28;53.08;100889.50;5074563;28;20055;-48
2023/06/16 03:40:59;;;;;;;6.68;5.93;;;;;;;25.28;53.11;100886.78;5075814;28;20045;-52
2023/06/16 03:43:27;;;;;;;6.32;5.43;;;;;;;25.28;53.05;100882.25;5074154;28;20049;-50
2023/06/16 03:45:55;;;;;;;7.03;5.35;;;;;;;25.28;53.13;100893.09;5075045;28;20242;-51
2023/06/16 03:48:24;;;;;;;6.47;5.60;;;;;;;25.29;52.91;100891.22;5074005;28;20511;-51
2023/06/16 03:50:56;;;;;;;6.40;5.73;;;;;;;25.29;53.11;100902.06;5073569;28;20049;-51
2023/06/16 03:53:24;;;;;;;7.88;5.20;;;;;;;25.28;52.82;100893.09;5074006;28;20538;-50
2023/06/16 03:55:52;;;;;;;6.95;5.45;;;;;;;25.28;52.87;100893.09;5073326;28;20044;-53
2023/06/16 03:58:20;;;;;;;6.65;5.47;;;;;;;25.28;52.90;100901.22;5073961;28;20056;-53
2023/06/16 04:00:47;;;;;;;6.78;5.28;;;;;;;25.28;53.02;100893.09;5075129;28;20420;-52
2023/06/16 04:03:17;;;;;;;6.60;5.95;;;;;;;25.27;53.29;100891.38;5073999;28;20059;-51
2023/06/16 04:05:44;;;;;;;6.40;5.80;;;;;;;25.27;53.03;100888.66;5073687;28;20048;-53
2023/06/16 04:08:12;;;;;;;7.25;6.05;;;;;;;25.28;53.05;100892.22;5074029;28;20053;-53
2023/06/16 04:10:39;;;;;;;6.47;5.88;;;;;;;25.26;53.08;100880.72;5074862;28;20040;-49
2023/06/16 04:13:07;;;;;;;5.55;5.05;;;;;;;25.26;52.88;100880.72;5074912;28;20045;-49
2023/06/16 04:15:38;;;;;;;6.57;5.25;;;;;;;25.27;52.84;100887.81;5073160;28;20067;-48
2023/06/16 04:18:05;;;;;;;6.97;5.95;;;;;;;25.27;52.82;100902.22;5073456;28;20063;-49
2023/06/16 04:20:33;;;;;;;6.88;5.60;;;;;;;25.26;52.89;100900.53;5073574;28;20048;-49
2023/06/16 04:23:00;;;;;;;6.65;6.03;;;;;;;25.28;52.95;100900.34;5073022;28;20052;-51
2023/06/16 04:25:29;;;;;;;5.85;5.25;;;;;;;25.26;52.98;100900.53;5073148;28;20052;-52
2023/06/16 04:27:57;;;;;;;5.93;4.75;;;;;;;25.26;52.96;100911.34;5073169;28;20056;-51
2023/06/16 04:30:24;;;;;;;6.93;4.90;;;;;;;25.26;52.87;100908.66;5074434;28;20048;-50
2023/06/16 04:32:54;;;;;;;8.38;5.53;;;;;;;25.27;52.97;100920.34;5072825;28;20059;-51
2023/06/16 04:35:24;;;;;;;7.10;5.35;;;;;;;25.27;53.11;100915.75;5072677;28;20047;-51
2023/06/16 04:37:51;;;;;;;6.53;5.55;;;;;;;25.26;52.98;100913.22;5074461;28;20067;-52
2023/06/16 04:40:18;;;;;;;6.18;5.45;;;;;;;25.26;52.83;100918.66;5072870;28;20048;-50
2023/06/16 04:42:47;;;;;;;6.45;5.22;;;;;;;25.26;53.04;100927.63;5072760;28;20056;-49
2023/06/16 04:45:15;;;;;;;7.38;5.43;;;;;;;25.27;53.17;100936.59;5072988;28;20056;-49
2023/06/16 04:47:45;;;;;;;5.95;5.30;;;;;;;25.27;53.23;100925.75;5072679;28;20059;-50
2023/06/16 04:50:15;;;;;;;8.27;6.03;;;;;;;25.27;53.45;100940.16;5072471;28;20052;-48
2023/06/16 04:52:44;;;;;;;5.78;5.18;;;;;;;25.26;53.40;100938.47;5073851;28;20045;-52
2023/06/16 04:55:11;;;;;;;5.65;5.05;;;;;;;25.26;53.15;100946.59;5073721;28;20048;-51
2023/06/16 04:57:39;;;;;;;6.20;4.95;;;;;;;25.26;53.29;100943.88;5074039;28;20067;-52
2023/06/16 05:00:09;;;;;;;7.93;6.10;;;;;;;25.26;53.42;100945.75;5074060;28;20068;-54
2023/06/16 05:02:37;;;;;;;6.72;5.38;;;;;;;25.26;53.36;100943.88;5072651;28;20504;-51
2023/06/16 05:05:05;;;;;;;5.75;4.80;;;;;;;25.27;53.47;100952.84;5073818;28;20052;-52
2023/06/16 05:07:33;;;;;;;6.65;5.93;;;;;;;25.27;53.76;100950.97;5072657;28;20408;-50
2023/06/16 05:10:01;;;;;;;7.60;5.40;;;;;;;25.26;53.53;100941.16;5073690;28;20095;-49
2023/06/16 05:12:30;;;;;;;7.25;5.15;;;;;;;25.28;53.58;100952.69;5072152;28;20052;-49
2023/06/16 05:14:58;;;;;;;6.80;5.40;;;;;;;25.28;53.57;100946.41;5072637;28;20052;-49
2023/06/16 05:17:26;;;;;;;7.38;4.85;;;;;;;25.27;53.75;100944.72;5072311;28;20048;-49
2023/06/16 05:19:54;;;;;;;6.28;4.95;;;;;;;25.28;54.02;100941.00;5072276;28;20055;-51
2023/06/16 05:22:23;;;;;;;7.53;4.95;;;;;;;25.28;53.67;100938.28;5072471;28;20048;-50
2023/06/16 05:24:54;;;;;;;5.47;4.97;;;;;;;25.28;53.82;100930.16;5071892;28;20056;-51
2023/06/16 05:27:25;;;;;;;7.65;4.93;;;;;;;25.28;53.65;100931.03;5071835;28;20591;-52
2023/06/16 05:29:54;;;;;;;;;;;;;;;25.26;53.70;100933.03;5072336;28;20048;-52
2023/06/16 05:32:26;;;;;;;5.80;5.20;;;;;;;25.26;53.76;100938.47;5072284;28;20393;-52
2023/06/16 05:34:55;;;;;;;7.75;5.15;;;;;;;25.28;53.82;100935.56;5071782;28;20052;-52
2023/06/16 05:37:24;;;;;;;7.72;5.50;;;;;;;25.28;53.79;100944.56;5071659;28;20537;-51
2023/06/16 05:39:52;;;;;;;6.50;5.63;;;;;;;25.27;54.21;100936.59;5072090;28;20052;-51
2023/06/16 05:42:20;;;;;;;6.00;5.35;;;;;;;25.26;53.83;100933.03;5072265;28;20505;-49
2023/06/16 05:44:49;;;;;;;5.90;5.00;;;;;;;25.29;53.92;100937.28;5071792;28;20061;-50
2023/06/16 05:47:17;;;;;;;6.50;5.45;;;;;;;25.29;54.11;100931.88;5071916;28;20063;-50
2023/06/16 05:49:45;;;;;;;5.95;5.30;;;;;;;25.28;53.92;100935.56;5071676;28;20051;-53
2023/06/16 05:52:13;;;;;;;6.10;5.47;;;;;;;25.29;53.90;100938.13;5073527;28;20473;-49
2023/06/16 05:54:42;;;;;;;6.85;5.32;;;;;;;25.29;53.96;100942.72;5072023;28;20060;-51
2023/06/16 05:57:16;;;;;;;6.93;5.38;;;;;;;25.29;53.87;100958.97;5071922;28;20056;-49
2023/06/16 05:59:44;;;;;;;5.35;4.57;;;;;;;25.29;53.85;100964.38;5073010;28;20057;-50
2023/06/16 06:02:12;;;;;;;7.18;5.22;;;;;;;25.30;53.70;100960.66;5075769;28;20049;-53
2023/06/16 06:04:42;;;;;;;5.25;4.55;;;;;;;25.30;54.08;100957.94;5075985;28;20049;-51
2023/06/16 06:07:10;;;;;;;5.63;5.00;;;;;;;25.30;53.82;100955.22;5075474;28;20049;-49
2023/06/16 06:09:37;;;;;;;5.30;4.80;;;;;;;25.30;53.76;100950.66;5075984;28;20075;-49
2023/06/16 06:12:05;;;;;;;5.78;4.53;;;;;;;25.31;53.94;100948.78;5075794;28;20044;-49
2023/06/16 06:14:33;;;;;;;5.57;5.07;;;;;;;25.31;53.85;100956.91;5076817;28;20044;-48
2023/06/16 06:17:00;;;;;;;6.32;4.60;;;;;;;25.30;53.82;100947.09;5076381;28;20527;-49
2023/06/16 06:19:29;;;;;;;6.00;5.00;;;;;;;25.32;53.80;100958.59;5075327;28;20052;-51
2023/06/16 06:21:59;;;;;;;6.40;5.22;;;;;;;25.32;53.85;100953.19;5075243;28;20439;-49
2023/06/16 06:24:26;;;;;;;5.57;5.07;;;;;;;25.32;54.13;100959.47;5077047;28;20071;-49
2023/06/16 06:26:57;;;;;;;5.35;4.82;;;;;;;25.33;53.79;100965.75;5075205;28;20388;-50
2023/06/16 06:29:24;;;;;;;5.65;4.82;;;;;;;25.32;53.88;100962.19;5075642;28;20064;-51
2023/06/16 06:31:52;;;;;;;7.07;4.57;;;;;;;25.33;53.95;100961.16;5075345;28;20412;-51
2023/06/16 06:34:19;;;;;;;6.18;4.65;;;;;;;25.33;54.07;100966.59;5075126;28;20060;-52
2023/06/16 06:36:47;;;;;;;6.50;4.30;;;;;;;25.34;53.99;100964.72;5058703;28;20162;-54
2023/06/16 06:39:17;;;;;;;5.30;4.80;;;;;;;25.33;54.12;100966.59;5074934;28;20048;-51
2023/06/16 06:41:46;;;;;;;5.13;4.57;;;;;;;25.34;54.05;100973.69;5075415;28;20479;-49
2023/06/16 06:44:17;;;;;;;6.15;4.93;;;;;;;25.34;54.14;100973.69;5075338;28;20052;-49
2023/06/16 06:46:48;;;;;;;6.93;5.40;;;;;;;25.35;54.09;100971.81;5074639;28;20060;-50
2023/06/16 06:49:17;;;;;;;6.20;5.05;;;;;;;25.36;54.31;100978.94;5074710;28;20504;-48
2023/06/16 06:51:45;;;;;;;5.68;4.70;;;;;;;25.36;54.21;100974.38;5075327;28;20044;-49
2023/06/16 06:54:12;;;;;;;4.97;4.47;;;;;;;25.37;54.07;100969.81;5075153;28;20114;-49
2023/06/16 06:56:39;;;;;;;5.50;4.53;;;;;;;25.37;54.20;100972.53;5076072;28;20060;-49
2023/06/16 06:59:07;;;;;;;6.35;5.25;;;;;;;25.36;54.20;100974.38;5076152;28;20045;-48
2023/06/16 07:01:34;;;;;;;8.18;6.30;;;;;;;25.34;53.58;100975.56;5076185;28;20048;-54
2023/06/16 07:04:05;;;;;;;5.95;5.35;;;;;;;25.26;52.97;100981.81;5076223;28;20048;-55
2023/06/16 07:06:32;;;;;;;6.05;5.00;;;;;;;25.25;52.49;100980.13;5075844;28;20064;-54
2023/06/16 07:09:00;;;;;;;6.18;5.57;;;;;;;25.25;52.45;100976.56;5075568;28;20052;-54
2023/06/16 07:11:27;;;;;;;7.63;5.22;;;;;;;25.26;52.01;100972.84;5080005;28;20047;-50
2023/06/16 07:13:55;;;;;;;7.65;5.68;;;;;;;25.26;51.55;100975.56;5087485;28;20047;-50
2023/06/16 07:16:22;;;;;;;6.97;5.38;;;;;;;25.28;51.97;100978.94;5075242;28;20404;-50
2023/06/16 07:18:50;;;;;;;5.88;5.07;;;;;;;25.26;51.40;100970.13;5075572;28;20480;-48
2023/06/16 07:21:17;;;;;;;7.80;5.40;;;;;;;25.20;50.82;100977.06;5075640;28;20055;-51
2023/06/16 07:23:44;;;;;;;5.80;4.72;;;;;;;25.15;50.09;100971.28;5075528;28;20048;-49
2023/06/16 07:26:12;;;;;;;6.15;5.00;;;;;;;25.13;49.71;100968.75;5075076;28;20052;-49
2023/06/16 07:28:42;;;;;;;5.88;4.55;;;;;;;25.13;49.24;100973.34;5074136;28;20057;-51
2023/06/16 07:31:10;;;;;;;5.20;4.18;;;;;;;25.13;49.00;100970.63;5075588;28;20044;-48
2023/06/16 07:33:38;;;;;;;5.50;4.68;;;;;;;25.15;49.11;100972.13;5075536;28;20044;-48
2023/06/16 07:36:05;;;;;;;5.57;4.43;;;;;;;25.17;49.49;100969.28;5075284;28;20052;-48
2023/06/16 07:38:33;;;;;;;5.40;4.72;;;;;;;25.22;49.25;100972.31;5074188;28;20044;-48
2023/06/16 07:41:02;;;;;;;5.75;4.72;;;;;;;25.25;49.71;100969.28;5075337;28;20054;-57
2023/06/16 07:43:29;;;;;;;6.13;4.65;;;;;;;25.30;49.40;100977.75;5075004;28;20060;-56
2023/06/16 07:45:57;;;;;;;5.13;4.55;;;;;;;25.33;49.34;100974.72;5075197;28;20053;-57
2023/06/16 07:48:24;;;;;;;5.80;4.28;;;;;;;25.36;49.63;100970.81;5075024;28;20350;-57
2023/06/16 07:50:53;;;;;;;5.68;4.70;;;;;;;25.36;49.73;100970.81;5075220;28;20051;-49
2023/06/16 07:53:21;;;;;;;5.70;4.25;;;;;;;25.36;49.96;100966.25;5075100;28;20157;-48
2023/06/16 07:55:48;;;;;;;5.68;4.45;;;;;;;25.38;49.78;100966.91;5074786;28;20052;-48
2023/06/16 07:58:15;;;;;;;4.97;4.15;;;;;;;25.40;49.96;100964.91;5074355;28;20048;-48
2023/06/16 08:00:43;;;;;;;6.60;4.22;;;;;;;25.42;50.18;100966.59;5074723;28;20067;-57
2023/06/16 08:03:10;;;;;;;5.60;4.30;;;;;;;25.45;50.13;100968.97;5074580;28;20052;-58
2023/06/16 08:05:37;;;;;;;5.47;4.35;;;;;;;25.48;50.05;100968.59;5074706;28;20067;-57
2023/06/16 08:08:05;;;;;;;5.93;4.38;;;;;;;25.51;50.08;100965.56;5073938;28;20044;-58
2023/06/16 08:10:32;;;;;;;5.28;4.32;;;;;;;25.53;49.73;100964.41;5074675;28;20285;-51
2023/06/16 08:13:00;;;;;;;4.72;4.05;;;;;;;25.56;49.49;100961.34;5074417;28;20048;-49
2023/06/16 08:15:27;;;;;;;5.82;3.60;;;;;;;25.58;49.39;100961.16;5075080;28;20089;-48
2023/06/16 08:17:55;;;;;;;5.00;4.00;;;;;;;25.57;49.40;100957.63;5074508;28;20044;-50
2023/06/16 08:20:22;;;;;;;6.05;4.53;;;;;;;25.60;49.59;100964.53;5074376;28;20378;-50
2023/06/16 08:22:50;;;;;;;4.90;4.32;;;;;;;25.59;49.50;100960.13;5073788;28;20481;-50
2023/06/16 08:25:17;;;;;;;5.80;3.92;;;;;;;25.57;49.24;100960.31;5074190;28;20408;-49
2023/06/16 08:27:47;;;;;;;4.88;3.58;;;;;;;25.59;49.43;100954.72;5074151;28;20052;-49
2023/06/16 08:30:15;;;;;;;5.43;4.13;;;;;;;25.61;49.11;100956.25;5074046;28;20056;-50
2023/06/16 08:32:43;;;;;;;4.47;3.75;;;;;;;25.60;49.33;100953.69;5074381;28;20049;-57
2023/06/16 08:35:11;;;;;;;5.38;4.10;;;;;;;25.59;49.04;100949.31;5074254;28;20499;-57
2023/06/16 08:37:39;;;;;;;4.72;4.05;;;;;;;25.57;48.74;100949.47;5073913;28;20041;-57
2023/06/16 08:40:10;;;;;;;5.78;4.35;;;;;;;25.59;49.19;100946.59;5073908;28;20056;-56
2023/06/16 08:42:40;;;;;;;4.50;3.77;;;;;;;25.61;48.92;100948.13;5074044;28;20051;-48
2023/06/16 08:45:09;;;;;;;4.40;3.83;;;;;;;25.64;48.90;100947.78;5073635;28;20052;-49
2023/06/16 08:47:40;;;;;;;5.00;3.63;;;;;;;25.67;48.89;100953.88;5073937;28;20412;-50
2023/06/16 08:50:09;;;;;;;5.65;3.47;;;;;;;25.68;48.89;100952.84;5073854;28;20045;-48
2023/06/16 08:52:41;;;;;;;4.78;3.53;;;;;;;25.68;48.12;100948.25;5073901;28;20044;-48
2023/06/16 08:55:14;;;;;;;5.38;3.53;;;;;;;25.69;47.78;100954.56;5073855;28;20053;-51
2023/06/16 08:57:50;;;;;;;4.15;3.40;;;;;;;25.71;47.70;100957.94;5073708;28;20041;-48
2023/06/16 09:00:18;;;;;;;5.25;3.92;;;;;;;25.70;47.71;100957.09;5073634;28;20048;-50
2023/06/16 09:02:48;;;;;;;4.78;3.30;;;;;;;25.69;47.64;100952.69;5073789;28;20044;-56
2023/06/16 09:05:18;;;;;;;4.05;3.05;;;;;;;25.70;48.01;100957.09;5073847;28;20492;-57
2023/06/16 09:07:47;;;;;;;4.55;3.65;;;;;;;25.71;48.24;100952.50;5073630;28;20040;-54
2023/06/16 09:10:16;;;;;;;4.78;3.97;;;;;;;25.71;48.33;100953.34;5073290;28;20049;-54
2023/06/16 09:12:50;;;;;;;4.80;4.05;;;;;;;25.64;48.25;100949.63;5073464;28;20068;-54
2023/06/16 09:15:17;;;;;;;4.78;4.00;;;;;;;25.64;47.98;100946.91;5073481;28;20040;-54
2023/06/16 09:17:47;;;;;;;5.60;4.25;;;;;;;25.61;48.13;100948.13;5073400;28;20068;-54
2023/06/16 09:20:16;;;;;;;5.55;4.07;;;;;;;25.58;48.17;100953.03;5073213;28;20048;-54
2023/06/16 09:22:49;;;;;;;5.13;4.28;;;;;;;25.57;48.28;100940.50;5073474;28;20040;-54
2023/06/16 09:25:17;;;;;;;;;;;;;;;25.55;48.66;100947.94;5073839;28;20055;-53
2023/06/16 09:27:46;;;;;;;5.28;4.47;;;;;;;25.55;48.75;100945.22;5073238;28;19920;-53
2023/06/16 09:30:18;;;;;;;4.43;3.97;;;;;;;25.54;48.53;100943.53;5071775;28;20056;-54
2023/06/16 09:32:51;;;;;;;6.05;4.65;;;;;;;25.53;48.51;100948.13;5073337;28;20045;-54
2023/06/16 09:35:20;;;;;;;6.72;4.30;;;;;;;25.53;48.87;100948.13;5072165;28;20044;-53
2023/06/16 09:37:50;;;;;;;6.15;4.03;;;;;;;25.55;48.82;100940.66;5072952;28;20044;-54
2023/06/16 09:40:20;;;;;;;4.82;4.05;;;;;;;25.57;49.01;100940.50;5071479;28;20053;-54
2023/06/16 09:42:50;;;;;;;5.47;4.10;;;;;;;25.58;49.25;100940.31;5073034;28;20498;-54
2023/06/16 09:45:20;;;;;;;4.75;4.25;;;;;;;25.60;49.12;100942.84;5073147;28;20044;-53
2023/06/16 09:47:48;;;;;;;4.57;4.07;;;;;;;25.58;49.22;100940.31;5071818;28;20055;-48
2023/06/16 09:50:19;;;;;;;4.38;3.78;;;;;;;25.58;49.03;100931.34;5072651;28;20049;-56
2023/06/16 09:52:47;;;;;;;5.95;4.53;;;;;;;25.57;48.84;100930.50;5072779;28;20055;-54
2023/06/16 09:55:15;;;;;;;4.70;3.85;;;;;;;25.59;49.01;100931.16;5072777;28;20044;-55
2023/06/16 09:57:44;;;;;;;6.70;3.88;;;;;;;25.59;48.95;100928.44;5072696;28;20044;-55
2023/06/16 10:00:16;;;;;;;4.80;4.30;;;;;;;25.61;48.90;100929.16;5072811;28;20049;-53
2023/06/16 10:02:46;;;;;;;5.32;4.47;;;;;;;25.59;48.87;100928.44;5079846;28;20055;-55
2023/06/16 10:05:18;;;;;;;5.40;4.28;;;;;;;25.58;48.66;100932.19;5072865;28;20040;-57
2023/06/16 10:07:50;;;;;;;5.18;4.68;;;;;;;25.57;48.32;100927.78;5072920;28;20118;-51
2023/06/16 10:10:23;;;;;;;5.20;4.43;;;;;;;25.56;48.40;100926.09;5072551;28;20543;-53
2023/06/16 10:12:53;;;;;;;6.43;4.57;;;;;;;25.54;48.69;100922.72;5072578;28;20045;-56
2023/06/16 10:15:26;;;;;;;4.65;4.15;;;;;;;25.53;48.28;100921.03;5072644;28;20055;-56
2023/06/16 10:17:55;;;;;;;;;;;;;;;25.51;47.85;100914.91;5073291;28;20107;-56
2023/06/16 10:20:26;;;;;;;4.57;3.75;;;;;;;25.53;48.04;100921.03;5072722;28;19924;-56
2023/06/16 10:22:56;;;;;;;6.22;4.20;;;;;;;25.56;48.25;100920.69;5073032;28;20060;-54
2023/06/16 10:25:23;;;;;;;4.43;3.92;;;;;;;25.58;48.47;100913.22;5072514;28;20106;-54
2023/06/16 10:27:51;;;;;;;5.60;4.18;;;;;;;25.61;48.61;100904.75;5072247;28;20044;-54
2023/06/16 10:30:21;;;;;;;6.10;3.83;;;;;;;25.63;48.60;100902.69;5072466;28;20056;-51
2023/06/16 10:32:52;;;;;;;4.80;4.20;;;;;;;25.67;48.69;100902.34;5072881;28;20041;-56
2023/06/16 10:35:21;;;;;;;4.47;4.05;;;;;;;25.67;48.38;100899.66;5072706;28;20049;-56
2023/06/16 10:37:52;;;;;;;6.50;4.03;;;;;;;25.67;48.06;100895.06;5072625;28;20048;-56
2023/06/16 10:40:22;;;;;;;4.78;4.30;;;;;;;25.68;47.91;100893.19;5072587;28;20048;-56
2023/06/16 10:42:55;;;;;;;5.75;4.18;;;;;;;25.66;47.83;100885.25;5072416;28;20048;-56
2023/06/16 10:45:26;;;;;;;5.22;4.18;;;;;;;25.67;47.79;100891.50;5073642;28;20055;-55
2023/06/16 10:47:56;;;;;;;5.50;4.70;;;;;;;25.68;47.93;100887.78;5076300;28;20059;-55
2023/06/16 10:50:51;;;;;;;4.20;3.70;;;;;;;25.68;48.44;100888.63;5076214;28;20055;-54
2023/06/16 10:53:23;;;;;;;4.55;4.07;;;;;;;25.70;48.40;100880.34;5089044;28;20048;-55
2023/06/16 10:56:07;;;;;;;6.47;3.92;;;;;;;25.70;48.52;100880.34;5096424;28;20048;-55
2023/06/16 10:58:34;;;;;;;4.32;3.92;;;;;;;25.72;48.54;100881.00;5096400;28;20044;-55
2023/06/16 11:01:02;;;;;;;4.57;3.88;;;;;;;25.75;48.33;100875.22;5096281;28;20060;-51
2023/06/16 11:03:43;;;;;;;4.22;3.53;;;;;;;25.77;47.95;100868.66;5095097;28;20052;-51
2023/06/16 11:06:11;;;;;;;5.88;4.03;;;;;;;25.80;47.81;100867.44;5095879;28;20044;-53
2023/06/16 11:08:50;;;;;;;5.63;3.88;;;;;;;25.81;47.72;100858.31;5095941;28;20479;-52
2023/06/16 11:11:17;;;;;;;4.35;3.70;;;;;;;25.81;47.90;100855.59;5095434;28;20044;-53
2023/06/16 11:13:46;;;;;;;5.93;4.80;;;;;;;25.83;47.54;100853.53;5095797;28;20059;-51
2023/06/16 11:16:14;;;;;;;4.50;3.95;;;;;;;25.84;47.99;100855.22;5095621;28;20464;-51
2023/06/16 11:18:42;;;;;;;5.43;3.50;;;;;;;25.84;48.12;100853.34;5095899;28;20391;-51
2023/06/16 11:21:10;;;;;;;4.72;4.13;;;;;;;25.86;48.26;100855.91;5095685;28;20048;-56
2023/06/16 11:23:43;;;;;;;4.80;4.30;;;;;;;25.86;48.25;100856.75;5095878;28;20052;-57
2023/06/16 11:26:17;;;;;;;4.27;3.60;;;;;;;25.88;48.32;100851.13;5095433;28;20039;-57
2023/06/16 11:28:46;;;;;;;4.82;4.07;;;;;;;25.88;48.02;100853.84;5095876;28;20052;-57
2023/06/16 11:31:14;;;;;;;4.68;4.18;;;;;;;25.89;47.50;100859.13;5095607;28;20488;-56
2023/06/16 11:33:42;;;;;;;5.40;4.47;;;;;;;25.91;47.30;100858.94;5095663;28;20040;-57
2023/06/16 11:36:21;;;;;;;4.32;3.60;;;;;;;25.94;47.14;100852.34;5095106;28;20051;-57
2023/06/16 11:38:51;;;;;;;4.93;3.95;;;;;;;25.94;46.95;100850.47;5095262;28;20480;-57